createdAt,value
2023-03-21T00:01:53.183Z,101130.31
2023-03-21T00:04:25.016Z,101138.28
2023-03-21T00:06:51.895Z,101137.38
2023-03-21T00:09:19.534Z,101124.09
2023-03-21T00:11:46.665Z,101126.78
2023-03-21T00:14:15.812Z,101117.03
2023-03-21T00:16:45.773Z,101119.66
2023-03-21T00:19:14.352Z,101124.97
2023-03-21T00:24:29.817Z,101117.91
2023-03-21T00:27:06.000Z,101116.13
2023-03-21T00:29:42.883Z,101112.59
2023-03-21T00:32:09.629Z,101113.50
2023-03-21T00:34:43.380Z,101100.22
2023-03-21T00:37:18.703Z,101101.97
2023-03-21T00:39:49.017Z,101099.34
2023-03-21T00:42:16.658Z,101101.09
2023-03-21T00:44:44.732Z,101098.44
2023-03-21T00:47:12.794Z,101100.19
2023-03-21T00:49:40.472Z,101096.66
2023-03-21T00:52:18.517Z,101094.88
2023-03-21T00:54:49.515Z,101095.78
2023-03-21T00:57:16.890Z,101087.81
2023-03-21T00:59:43.730Z,101093.13
2023-03-21T01:02:14.661Z,101086.03
2023-03-21T01:04:41.595Z,101084.25
2023-03-21T01:07:08.461Z,101071.88
2023-03-21T01:09:35.237Z,101082.50
2023-03-21T01:12:03.478Z,101074.53
2023-03-21T01:14:30.357Z,101078.09
2023-03-21T01:16:57.128Z,101075.44
2023-03-21T01:19:40.648Z,101078.09
2023-03-21T01:22:11.849Z,101067.44
2023-03-21T01:24:50.209Z,101066.56
2023-03-21T01:27:19.073Z,101074.53
2023-03-21T01:29:45.905Z,101060.34
2023-03-21T01:32:12.660Z,101070.97
2023-03-21T01:34:39.404Z,101063.91
2023-03-21T01:37:06.255Z,101067.44
2023-03-21T01:39:34.850Z,101059.50
2023-03-21T01:42:01.647Z,101062.16
2023-03-21T01:44:28.957Z,101063.03
2023-03-21T01:47:12.609Z,101067.44
2023-03-21T01:49:45.954Z,101054.16
2023-03-21T01:52:29.819Z,101057.72
2023-03-21T01:55:05.373Z,101055.06
2023-03-21T01:57:49.423Z,101047.09
2023-03-21T02:00:29.495Z,101055.06
2023-03-21T02:03:11.352Z,101047.09
2023-03-21T02:05:52.622Z,101047.97
2023-03-21T02:08:23.947Z,101050.63
2023-03-21T02:10:51.797Z,101042.66
2023-03-21T02:13:18.941Z,101045.31
2023-03-21T02:15:59.851Z,101036.50
2023-03-21T02:19:06.224Z,101041.78
2023-03-21T02:21:57.652Z,101026.72
2023-03-21T02:24:42.691Z,101022.31
2023-03-21T02:27:21.753Z,101026.75
2023-03-21T02:30:51.704Z,101026.75
2023-03-21T02:33:52.599Z,101024.97
2023-03-21T02:36:31.589Z,101020.56
2023-03-21T02:39:13.743Z,101017.03
2023-03-21T02:42:03.409Z,101015.25
2023-03-21T02:45:11.548Z,101007.31
2023-03-21T02:47:52.726Z,101016.13
2023-03-21T02:50:34.037Z,101008.19
2023-03-21T02:53:04.842Z,101012.63
2023-03-21T02:55:34.873Z,101010.81
2023-03-21T02:58:12.886Z,101013.47
2023-03-21T03:00:44.025Z,101006.41
2023-03-21T03:03:18.115Z,101001.97
2023-03-21T03:05:59.098Z,101000.22
2023-03-21T03:08:52.993Z,100999.31
2023-03-21T03:11:42.105Z,100995.78
2023-03-21T03:15:02.981Z,100994.88
2023-03-21T03:17:52.627Z,101002.88
2023-03-21T03:20:36.578Z,100995.78
2023-03-21T03:23:59.726Z,100988.72
2023-03-21T03:26:55.335Z,101000.22
2023-03-21T03:29:25.986Z,100998.47
2023-03-21T03:32:08.297Z,100994.88
2023-03-21T03:34:43.224Z,100989.59
2023-03-21T03:37:16.879Z,100991.34
2023-03-21T03:39:54.003Z,100997.56
2023-03-21T03:42:44.624Z,100991.38
2023-03-21T03:45:12.255Z,100988.72
2023-03-21T03:48:13.887Z,100994.03
2023-03-21T03:51:21.510Z,100993.13
2023-03-21T03:53:56.759Z,100984.28
2023-03-21T03:56:25.386Z,100991.34
2023-03-21T03:58:52.448Z,100986.94
2023-03-21T04:01:19.241Z,100980.75
2023-03-21T04:03:52.963Z,100986.06
2023-03-21T04:06:24.284Z,100986.06
2023-03-21T04:08:51.342Z,100988.69
2023-03-21T04:11:18.163Z,100978.97
2023-03-21T04:13:44.982Z,100983.38
2023-03-21T04:16:12.834Z,100983.38
2023-03-21T04:18:40.641Z,100980.72
2023-03-21T04:21:12.762Z,100980.72
2023-03-21T04:23:41.233Z,100985.16
2023-03-21T04:26:08.496Z,100979.81
2023-03-21T04:28:37.147Z,100982.50
2023-03-21T04:31:24.199Z,100978.06
2023-03-21T04:33:52.235Z,100986.00
2023-03-21T04:36:26.368Z,100973.66
2023-03-21T04:38:53.752Z,100983.38
2023-03-21T04:41:20.900Z,100966.53
2023-03-21T04:43:48.409Z,100977.16
2023-03-21T04:46:15.526Z,100971.84
2023-03-21T04:48:42.451Z,100966.53
2023-03-21T04:51:09.329Z,100976.28
2023-03-21T04:53:38.147Z,100970.97
2023-03-21T04:56:06.662Z,100963.03
2023-03-21T04:58:33.418Z,100966.56
2023-03-21T05:01:02.431Z,100963.03
2023-03-21T05:03:30.301Z,100964.78
2023-03-21T05:05:57.912Z,100968.34
2023-03-21T05:08:24.744Z,100971.88
2023-03-21T05:10:51.544Z,100975.41
2023-03-21T05:13:18.319Z,100964.78
2023-03-21T05:15:45.056Z,100977.19
2023-03-21T05:18:11.863Z,100973.63
2023-03-21T05:20:43.699Z,100969.22
2023-03-21T05:23:11.702Z,100966.56
2023-03-21T05:25:39.748Z,100975.41
2023-03-21T05:28:07.777Z,100963.91
2023-03-21T05:30:34.837Z,100980.72
2023-03-21T05:33:01.802Z,100965.66
2023-03-21T05:35:28.699Z,100975.41
2023-03-21T05:37:55.644Z,100958.59
2023-03-21T05:40:22.456Z,100963.03
2023-03-21T05:42:49.572Z,100960.38
2023-03-21T05:45:16.653Z,100962.13
2023-03-21T05:47:43.564Z,100956.81
2023-03-21T05:50:13.492Z,100958.56
2023-03-21T05:52:40.803Z,100955.91
2023-03-21T05:55:08.195Z,100959.47
2023-03-21T05:57:39.170Z,100963.91
2023-03-21T06:00:08.337Z,100957.69
2023-03-21T06:02:35.314Z,100953.25
2023-03-21T06:05:02.146Z,100959.44
2023-03-21T06:07:28.956Z,100958.56
2023-03-21T06:09:55.750Z,100960.31
2023-03-21T06:12:22.784Z,100966.53
2023-03-21T06:14:49.599Z,100960.31
2023-03-21T06:17:16.550Z,100967.38
2023-03-21T06:19:43.326Z,100963.84
2023-03-21T06:22:10.107Z,100961.19
2023-03-21T06:24:36.921Z,100953.22
2023-03-21T06:27:05.567Z,100963.84
2023-03-21T06:29:32.343Z,100967.38
2023-03-21T06:31:59.205Z,100959.41
2023-03-21T06:34:26.653Z,100961.16
2023-03-21T06:36:54.643Z,100967.38
2023-03-21T06:39:21.817Z,100962.03
2023-03-21T06:41:48.604Z,100964.69
2023-03-21T06:44:15.424Z,100967.34
2023-03-21T06:46:42.838Z,100965.56
2023-03-21T06:49:09.625Z,100962.91
2023-03-21T06:51:37.391Z,100969.09
2023-03-21T06:54:04.256Z,100976.19
2023-03-21T06:56:31.033Z,100975.28
2023-03-21T06:58:57.784Z,100977.06
2023-03-21T07:01:27.499Z,100966.44
2023-03-21T07:03:57.372Z,100973.50
2023-03-21T07:06:26.507Z,100984.13
2023-03-21T07:08:54.958Z,100977.03
2023-03-21T07:11:22.651Z,100979.66
2023-03-21T07:13:50.267Z,100973.50
2023-03-21T07:16:18.372Z,100975.25
2023-03-21T07:18:45.391Z,100977.91
2023-03-21T07:21:12.227Z,100985.00
2023-03-21T07:23:40.056Z,100982.31
2023-03-21T07:26:08.143Z,100975.22
2023-03-21T07:28:35.197Z,100985.81
2023-03-21T07:31:06.509Z,100983.19
2023-03-21T07:33:33.904Z,100973.44
2023-03-21T07:36:00.732Z,100972.53
2023-03-21T07:38:27.795Z,100973.41
2023-03-21T07:40:54.576Z,100974.28
2023-03-21T07:43:21.517Z,100960.97
2023-03-21T07:45:48.345Z,100966.28
2023-03-21T07:48:17.342Z,100963.59
2023-03-21T07:50:44.148Z,100956.50
2023-03-21T07:53:10.888Z,100962.66
2023-03-21T07:55:37.892Z,100960.91
2023-03-21T07:58:05.749Z,100953.78
2023-03-21T08:00:33.262Z,100966.13
2023-03-21T08:03:00.959Z,100959.03
2023-03-21T08:05:37.010Z,100958.94
2023-03-21T08:08:05.548Z,100954.44
2023-03-21T08:10:32.643Z,100958.81
2023-03-21T08:12:59.433Z,100955.19
2023-03-21T08:15:26.449Z,100958.63
2023-03-21T08:17:53.373Z,100951.41
2023-03-21T08:20:23.446Z,100940.66
2023-03-21T08:22:50.730Z,100946.78
2023-03-21T08:25:20.192Z,100948.47
2023-03-21T08:27:48.167Z,100947.47
2023-03-21T08:30:19.185Z,100953.63
2023-03-21T08:32:46.402Z,100950.03
2023-03-21T08:35:16.706Z,100958.78
2023-03-21T08:37:43.709Z,100953.31
2023-03-21T08:40:15.644Z,100954.97
2023-03-21T08:42:43.679Z,100958.41
2023-03-21T08:45:11.688Z,100952.13
2023-03-21T08:47:38.960Z,100961.84
2023-03-21T08:50:10.213Z,100963.63
2023-03-21T08:52:37.164Z,100955.63
2023-03-21T08:55:05.435Z,100957.41
2023-03-21T08:57:32.270Z,100958.34
2023-03-21T08:59:59.022Z,100953.91
2023-03-21T09:02:25.780Z,100952.19
2023-03-21T09:04:59.101Z,100958.47
2023-03-21T09:07:26.586Z,100954.09
2023-03-21T09:10:02.995Z,100959.47
2023-03-21T09:12:41.138Z,100961.28
2023-03-21T09:15:11.944Z,100954.25
2023-03-21T09:17:42.361Z,100956.09
2023-03-21T09:20:18.683Z,100957.81
2023-03-21T09:22:51.015Z,100952.41
2023-03-21T09:25:19.329Z,100955.84
2023-03-21T09:27:46.282Z,100958.41
2023-03-21T09:30:16.950Z,100952.97
2023-03-21T09:32:48.488Z,100952.00
2023-03-21T09:35:18.776Z,100956.38
2023-03-21T09:37:47.282Z,100953.66
2023-03-21T09:40:57.133Z,100951.00
2023-03-21T09:43:44.456Z,100951.00
2023-03-21T09:46:28.114Z,100950.16
2023-03-21T09:49:07.878Z,100951.00
2023-03-21T09:51:40.408Z,100951.88
2023-03-21T09:54:18.988Z,100950.94
2023-03-21T09:56:47.207Z,100942.03
2023-03-21T09:59:33.817Z,100948.22
2023-03-21T10:02:01.762Z,100946.41
2023-03-21T10:04:29.501Z,100941.00
2023-03-21T10:07:02.523Z,100948.00
2023-03-21T10:09:32.514Z,100939.88
2023-03-21T10:12:09.166Z,100938.84
2023-03-21T10:14:44.334Z,100944.00
2023-03-21T10:17:43.435Z,100936.72
2023-03-21T10:20:31.325Z,100931.28
2023-03-21T10:23:01.569Z,100927.72
2023-03-21T10:25:39.815Z,100930.31
2023-03-21T10:28:15.328Z,100924.97
2023-03-21T10:30:47.125Z,100920.53
2023-03-21T10:33:20.364Z,100931.28
2023-03-21T10:35:56.280Z,100922.44
2023-03-21T10:38:25.917Z,100925.22
2023-03-21T10:40:54.002Z,100921.66
2023-03-21T10:43:26.731Z,100927.94
2023-03-21T10:45:55.562Z,100927.09
2023-03-21T10:48:24.023Z,100925.44
2023-03-21T10:50:54.967Z,100931.75
2023-03-21T10:53:28.096Z,100922.03
2023-03-21T10:55:58.891Z,100926.53
2023-03-21T10:58:39.514Z,100928.25
2023-03-21T11:01:13.293Z,100917.56
2023-03-21T11:03:43.676Z,100911.34
2023-03-21T11:06:27.778Z,100915.72
2023-03-21T11:09:01.020Z,100910.25
2023-03-21T11:11:40.934Z,100903.91
2023-03-21T11:14:33.967Z,100901.16
2023-03-21T11:17:01.080Z,100893.09
2023-03-21T11:19:34.277Z,100893.00
2023-03-21T11:22:07.258Z,100896.50
2023-03-21T11:24:35.664Z,100890.25
2023-03-21T11:27:07.672Z,100891.09
2023-03-21T11:29:41.080Z,100886.59
2023-03-21T11:32:21.240Z,100886.53
2023-03-21T11:35:18.254Z,100897.22
2023-03-21T11:37:53.202Z,100892.69
2023-03-21T11:40:30.904Z,100889.94
2023-03-21T11:43:01.226Z,100893.47
2023-03-21T11:45:36.053Z,100889.88
2023-03-21T11:48:12.719Z,100879.19
2023-03-21T11:50:45.509Z,100887.28
2023-03-21T11:53:48.123Z,100878.47
2023-03-21T11:56:39.483Z,100875.94
2023-03-21T11:59:35.787Z,100867.16
2023-03-21T12:02:59.111Z,100868.19
2023-03-21T12:05:54.716Z,100865.63
2023-03-21T12:08:54.430Z,100870.13
2023-03-21T12:12:07.521Z,100871.97
2023-03-21T12:15:01.489Z,100866.72
2023-03-21T12:17:51.066Z,100859.59
2023-03-21T12:20:53.697Z,100864.06
2023-03-21T12:23:45.037Z,100853.47
2023-03-21T12:26:29.681Z,100856.22
2023-03-21T12:29:20.833Z,100857.28
2023-03-21T12:32:19.883Z,100853.78
2023-03-21T12:35:09.653Z,100851.16
2023-03-21T12:37:57.358Z,100846.78
2023-03-21T12:40:55.691Z,100842.41
2023-03-21T12:43:49.041Z,100843.38
2023-03-21T12:46:39.636Z,100836.25
2023-03-21T12:49:32.201Z,100844.25
2023-03-21T12:52:12.138Z,100846.03
2023-03-21T12:54:49.588Z,100837.97
2023-03-21T12:57:25.108Z,100832.63
2023-03-21T13:00:13.485Z,100837.88
2023-03-21T13:03:10.719Z,100827.16
2023-03-21T13:05:58.355Z,100823.59
2023-03-21T13:08:41.925Z,100818.22
2023-03-21T13:11:14.266Z,100814.59
2023-03-21T13:13:56.120Z,100813.63
2023-03-21T13:16:49.644Z,100804.72
2023-03-21T13:19:42.563Z,100803.78
2023-03-21T13:22:29.902Z,100806.44
2023-03-21T13:25:19.158Z,100797.56
2023-03-21T13:27:55.891Z,100794.94
2023-03-21T13:30:28.611Z,100795.84
2023-03-21T13:33:13.567Z,100793.13
2023-03-21T13:35:43.695Z,100792.25
2023-03-21T13:38:26.675Z,100785.94
2023-03-21T13:41:01.388Z,100786.81
2023-03-21T13:43:55.359Z,100785.88
2023-03-21T13:46:25.330Z,100780.59
2023-03-21T13:49:15.389Z,100787.78
2023-03-21T13:51:46.251Z,100778.94
2023-03-21T13:54:15.298Z,100783.47
2023-03-21T13:56:45.823Z,100780.88
2023-03-21T13:59:36.702Z,100772.91
2023-03-21T14:02:30.187Z,100778.31
2023-03-21T14:05:19.059Z,100773.97
2023-03-21T14:07:50.097Z,100772.25
2023-03-21T14:10:25.053Z,100770.53
2023-03-21T14:12:53.141Z,100764.38
2023-03-21T14:15:27.823Z,100764.41
2023-03-21T14:18:10.808Z,100753.78
2023-03-21T14:20:56.879Z,100765.38
2023-03-21T14:23:24.713Z,100756.56
2023-03-21T14:25:52.617Z,100754.81
2023-03-21T14:28:28.516Z,100753.94
2023-03-21T14:31:00.036Z,100756.63
2023-03-21T14:33:36.566Z,100759.28
2023-03-21T14:36:14.204Z,100757.50
2023-03-21T14:38:41.601Z,100750.38
2023-03-21T14:41:28.127Z,100753.91
2023-03-21T14:44:14.631Z,100747.72
2023-03-21T14:46:42.536Z,100749.53
2023-03-21T14:49:20.290Z,100740.69
2023-03-21T14:51:50.680Z,100747.81
2023-03-21T14:54:18.405Z,100738.09
2023-03-21T14:56:50.671Z,100741.66
2023-03-21T14:59:23.007Z,100738.09
2023-03-21T15:01:52.470Z,100732.78
2023-03-21T15:04:21.349Z,100730.13
2023-03-21T15:06:56.522Z,100729.22
2023-03-21T15:09:27.364Z,100732.81
2023-03-21T15:11:56.884Z,100726.63
2023-03-21T15:14:34.603Z,100723.91
2023-03-21T15:17:07.594Z,100723.94
2023-03-21T15:19:39.453Z,100711.53
2023-03-21T15:22:33.190Z,100712.41
2023-03-21T15:25:08.149Z,100710.66
2023-03-21T15:27:43.190Z,100710.66
2023-03-21T15:30:28.390Z,100702.66
2023-03-21T15:32:56.751Z,100695.59
2023-03-21T15:35:44.471Z,100698.25
2023-03-21T15:38:33.412Z,100692.94
2023-03-21T15:41:18.924Z,100692.06
2023-03-21T15:43:48.248Z,100682.34
2023-03-21T15:46:18.448Z,100683.16
2023-03-21T15:48:45.413Z,100680.53
2023-03-21T15:51:23.611Z,100677.84
2023-03-21T15:53:54.083Z,100672.53
2023-03-21T15:56:22.747Z,100678.78
2023-03-21T15:58:52.605Z,100673.47
2023-03-21T16:01:22.238Z,100672.56
2023-03-21T16:03:57.503Z,100651.28
2023-03-21T16:06:33.641Z,100658.44
2023-03-21T16:09:25.766Z,100647.78
2023-03-21T16:11:59.714Z,100663.84
2023-03-21T16:14:27.831Z,100652.31
2023-03-21T16:16:55.080Z,100648.75
2023-03-21T16:19:23.133Z,100646.06
2023-03-21T16:21:50.048Z,100640.75
2023-03-21T16:24:16.861Z,100638.16
2023-03-21T16:26:51.962Z,100637.28
2023-03-21T16:29:19.790Z,100632.00
2023-03-21T16:31:48.416Z,100634.69
2023-03-21T16:34:15.303Z,100630.31
2023-03-21T16:36:43.359Z,100625.88
2023-03-21T16:39:21.516Z,100620.56
2023-03-21T16:41:48.714Z,100618.84
2023-03-21T16:44:15.555Z,100619.81
2023-03-21T16:46:42.561Z,100618.94
2023-03-21T16:49:24.568Z,100614.50
2023-03-21T16:51:53.359Z,100608.34
2023-03-21T16:54:20.873Z,100606.56
2023-03-21T16:56:53.892Z,100619.88
2023-03-21T16:59:21.602Z,100619.94
2023-03-21T17:01:49.548Z,100619.94
2023-03-21T17:04:18.153Z,100620.00
2023-03-21T17:06:51.650Z,100620.00
2023-03-21T17:09:22.382Z,100626.28
2023-03-21T17:11:49.489Z,100629.81
2023-03-21T17:14:21.364Z,100635.16
2023-03-21T17:16:48.690Z,100631.66
2023-03-21T17:19:26.293Z,100625.47
2023-03-21T17:21:53.175Z,100618.38
2023-03-21T17:24:20.003Z,100628.16
2023-03-21T17:26:46.756Z,100615.75
2023-03-21T17:29:14.790Z,100627.31
2023-03-21T17:31:42.467Z,100618.44
2023-03-21T17:34:09.671Z,100623.78
2023-03-21T17:36:39.803Z,100614.06
2023-03-21T17:39:12.803Z,100625.59
2023-03-21T17:41:39.737Z,100611.41
2023-03-21T17:44:07.502Z,100610.53
2023-03-21T17:46:37.126Z,100615.91
2023-03-21T17:49:05.415Z,100611.47
2023-03-21T17:51:33.060Z,100623.00
2023-03-21T17:54:00.345Z,100614.19
2023-03-21T17:56:31.013Z,100615.97
2023-03-21T17:59:05.032Z,100618.66
2023-03-21T18:01:32.142Z,100619.59
2023-03-21T18:04:02.733Z,100617.81
2023-03-21T18:06:29.688Z,100625.81
2023-03-21T18:08:57.234Z,100633.84
2023-03-21T18:11:24.537Z,100626.78
2023-03-21T18:14:03.592Z,100629.47
2023-03-21T18:16:37.017Z,100632.16
2023-03-21T18:19:03.888Z,100621.56
2023-03-21T18:21:32.912Z,100617.19
2023-03-21T18:23:59.823Z,100614.59
2023-03-21T18:26:26.608Z,100615.47
2023-03-21T18:29:43.980Z,100608.44
2023-03-21T18:31:40.324Z,100606.72
2023-03-21T18:34:07.196Z,100613.00
2023-03-21T18:36:34.408Z,100615.66
2023-03-21T18:39:03.389Z,100621.03
2023-03-21T18:41:30.544Z,100612.16
2023-03-21T18:44:05.570Z,100611.34
2023-03-21T18:46:47.105Z,100623.75
2023-03-21T18:49:58.959Z,100621.16
2023-03-21T18:52:02.439Z,100627.38
2023-03-21T18:54:30.061Z,100626.53
2023-03-21T18:57:33.765Z,100647.78
2023-03-21T18:59:44.524Z,100638.09
2023-03-21T19:02:13.946Z,100628.34
2023-03-21T19:04:41.074Z,100638.16
2023-03-21T19:07:08.579Z,100644.41
2023-03-21T19:09:58.327Z,100649.72
2023-03-21T19:12:23.931Z,100645.34
2023-03-21T19:14:50.773Z,100640.03
2023-03-21T19:18:19.341Z,100647.13
2023-03-21T19:20:05.704Z,100640.03
2023-03-21T19:22:32.545Z,100637.38
2023-03-21T19:24:59.327Z,100641.81
2023-03-21T19:27:26.950Z,100637.31
2023-03-21T19:30:10.726Z,100634.66
2023-03-21T19:32:39.693Z,100640.88
2023-03-21T19:35:07.355Z,100642.59
2023-03-21T19:37:36.196Z,100644.38
2023-03-21T19:40:05.611Z,100649.63
2023-03-21T19:42:32.507Z,100652.31
2023-03-21T19:44:59.418Z,100650.53
2023-03-21T19:47:26.451Z,100654.06
2023-03-21T19:52:40.999Z,100654.06
2023-03-21T19:55:08.306Z,100646.91
2023-03-21T19:57:36.210Z,100641.59
2023-03-21T20:00:04.306Z,100643.38
2023-03-21T20:02:36.645Z,100639.81
2023-03-21T20:05:08.472Z,100635.38
2023-03-21T20:07:35.410Z,100638.06
2023-03-21T20:10:02.326Z,100637.16
2023-03-21T20:12:29.313Z,100636.22
2023-03-21T20:15:15.692Z,100632.72
2023-03-21T20:17:43.886Z,100632.72
2023-03-21T20:20:14.492Z,100627.41
2023-03-21T20:25:29.509Z,100630.97
2023-03-21T20:28:12.895Z,100624.75
2023-03-21T20:30:50.716Z,100623.88
2023-03-21T20:33:17.704Z,100625.72
2023-03-21T20:36:29.412Z,100629.31
2023-03-21T20:38:33.427Z,100630.28
2023-03-21T20:41:01.883Z,100634.75
2023-03-21T20:44:20.478Z,100628.59
2023-03-21T20:46:16.507Z,100628.63
2023-03-21T20:48:43.366Z,100630.41
2023-03-21T20:52:14.819Z,100631.34
2023-03-21T20:53:59.016Z,100631.38
2023-03-21T20:56:25.793Z,100629.66
2023-03-21T20:59:07.951Z,100630.56
2023-03-21T21:01:35.030Z,100620.00
2023-03-21T21:04:01.905Z,100617.41
2023-03-21T21:06:28.852Z,100618.28
2023-03-21T21:08:55.798Z,100613.91
2023-03-21T21:14:10.209Z,100605.13
2023-03-21T21:16:37.124Z,100598.06
2023-03-21T21:19:03.938Z,100599.88
2023-03-21T21:21:31.596Z,100599.91
2023-03-21T21:23:58.612Z,100607.88
2023-03-21T21:26:25.404Z,100596.44
2023-03-21T21:28:53.148Z,100608.84
2023-03-21T21:31:20.376Z,100606.22
2023-03-21T21:33:50.005Z,100593.00
2023-03-21T21:36:17.103Z,100598.34
2023-03-21T21:38:44.123Z,100600.16
2023-03-21T21:41:19.191Z,100597.53
2023-03-21T21:43:46.824Z,100591.38
2023-03-21T21:46:14.430Z,100586.06
2023-03-21T21:48:41.788Z,100587.88
2023-03-21T21:51:09.105Z,100590.56
2023-03-21T21:53:36.475Z,100583.50
2023-03-21T21:56:06.878Z,100579.09
2023-03-21T21:58:34.048Z,100595.06
2023-03-21T22:01:01.785Z,100589.78
2023-03-21T22:03:36.329Z,100590.66
2023-03-21T22:06:04.558Z,100584.47
2023-03-21T22:08:31.557Z,100583.63
2023-03-21T22:11:00.975Z,100591.56
2023-03-21T22:13:28.178Z,100581.00
2023-03-21T22:15:55.255Z,100582.72
2023-03-21T22:18:22.412Z,100582.75
2023-03-21T22:20:49.188Z,100584.53
2023-03-21T22:23:16.158Z,100583.66
2023-03-21T22:25:49.273Z,100578.34
2023-03-21T22:28:17.761Z,100582.75
2023-03-21T22:30:44.532Z,100586.28
2023-03-21T22:33:11.276Z,100583.66
2023-03-21T22:35:38.393Z,100582.72
2023-03-21T22:38:05.283Z,100586.31
2023-03-21T22:40:32.095Z,100565.03
2023-03-21T22:42:58.891Z,100568.53
2023-03-21T22:45:25.796Z,100562.31
2023-03-21T22:47:53.447Z,100558.78
2023-03-21T22:50:20.287Z,100561.41
2023-03-21T22:52:47.091Z,100562.25
2023-03-21T22:55:14.281Z,100556.06
2023-03-21T22:57:41.069Z,100557.78
2023-03-21T23:00:13.346Z,100557.78
2023-03-21T23:02:41.386Z,100562.19
2023-03-21T23:05:09.834Z,100557.78
2023-03-21T23:07:36.642Z,100556.03
2023-03-21T23:10:05.367Z,100559.56
2023-03-21T23:12:32.548Z,100552.47
2023-03-21T23:15:00.445Z,100560.41
2023-03-21T23:17:28.135Z,100562.19
2023-03-21T23:19:54.915Z,100566.59
2023-03-21T23:22:21.672Z,100566.56
2023-03-21T23:24:49.021Z,100567.44
2023-03-21T23:27:18.083Z,100561.22
2023-03-21T23:29:45.309Z,100570.06
2023-03-21T23:32:12.110Z,100571.81
2023-03-21T23:34:38.893Z,100570.09
2023-03-21T23:37:06.808Z,100566.56
2023-03-21T23:39:34.303Z,100568.34
2023-03-21T23:42:01.412Z,100566.59
2023-03-21T23:44:28.414Z,100564.84
2023-03-21T23:46:55.377Z,100559.56
2023-03-21T23:49:22.146Z,100556.94
2023-03-21T23:51:49.950Z,100556.97
2023-03-21T23:54:16.849Z,100549.94
2023-03-21T23:56:43.853Z,100552.63
2023-03-21T23:59:10.797Z,100544.69
